createdAt,value
2018-07-31T00:00:00.391Z,21.66
2018-07-31T00:00:04.380Z,21.67
2018-07-31T00:00:08.477Z,21.66
2018-07-31T00:00:12.793Z,21.66
2018-07-31T00:00:16.896Z,21.66
2018-07-31T00:00:21.096Z,21.66
2018-07-31T00:00:25.404Z,21.67
2018-07-31T00:00:29.605Z,21.66
2018-07-31T00:00:33.813Z,21.66
2018-07-31T00:00:38.122Z,21.66
2018-07-31T00:00:42.439Z,21.66
2018-07-31T00:00:46.649Z,21.66
2018-07-31T00:00:50.856Z,21.66
2018-07-31T00:00:55.058Z,21.66
2018-07-31T00:00:59.400Z,21.66
2018-07-31T00:01:03.618Z,21.66
2018-07-31T00:01:07.728Z,21.66
2018-07-31T00:01:11.830Z,21.65
2018-07-31T00:01:15.942Z,21.66
2018-07-31T00:01:20.142Z,21.66
2018-07-31T00:01:24.463Z,21.66
2018-07-31T00:01:28.667Z,21.66
2018-07-31T00:01:32.768Z,21.65
2018-07-31T00:01:36.977Z,21.66
2018-07-31T00:01:41.183Z,21.65
2018-07-31T00:01:45.505Z,21.65
2018-07-31T00:01:49.716Z,21.66
2018-07-31T00:01:53.823Z,21.66
2018-07-31T00:01:57.918Z,21.66
2018-07-31T00:02:02.028Z,21.65
2018-07-31T00:02:06.125Z,21.66
2018-07-31T00:02:10.337Z,21.65
2018-07-31T00:02:14.543Z,21.65
2018-07-31T00:02:18.751Z,21.65
2018-07-31T00:02:22.748Z,21.66
2018-07-31T00:02:26.739Z,21.65
2018-07-31T00:02:31.048Z,21.66
2018-07-31T00:02:35.264Z,21.66
2018-07-31T00:02:39.581Z,21.65
2018-07-31T00:02:43.893Z,21.65
2018-07-31T00:02:48.091Z,21.65
2018-07-31T00:02:52.305Z,21.65
2018-07-31T00:02:56.400Z,21.65
2018-07-31T00:03:00.606Z,21.64
2018-07-31T00:03:04.827Z,21.65
2018-07-31T00:03:08.819Z,21.65
2018-07-31T00:03:13.126Z,21.65
2018-07-31T00:03:17.326Z,21.65
2018-07-31T00:03:21.818Z,21.65
2018-07-31T00:03:26.381Z,21.64
2018-07-31T00:03:31.097Z,21.65
2018-07-31T00:03:36.021Z,21.65
2018-07-31T00:03:40.128Z,21.65
2018-07-31T00:03:44.338Z,21.64
2018-07-31T00:03:48.663Z,21.65
2018-07-31T00:03:52.761Z,21.65
2018-07-31T00:03:56.974Z,21.64
2018-07-31T00:04:01.070Z,21.65
2018-07-31T00:04:05.281Z,21.64
2018-07-31T00:04:09.504Z,21.64
2018-07-31T00:04:13.821Z,21.65
2018-07-31T00:04:17.923Z,21.64
2018-07-31T00:04:22.235Z,21.64
2018-07-31T00:04:26.226Z,21.64
2018-07-31T00:04:30.427Z,21.64
2018-07-31T00:04:34.742Z,21.64
2018-07-31T00:04:39.057Z,21.64
2018-07-31T00:04:43.166Z,21.65
2018-07-31T00:04:47.474Z,21.64
2018-07-31T00:04:51.694Z,21.64
2018-07-31T00:04:55.898Z,21.64
2018-07-31T00:05:00.106Z,21.64
2018-07-31T00:05:04.205Z,21.64
2018-07-31T00:05:08.524Z,21.64
2018-07-31T00:05:12.625Z,21.64
2018-07-31T00:05:16.724Z,21.64
2018-07-31T00:05:20.929Z,21.64
2018-07-31T00:05:25.242Z,21.64
2018-07-31T00:05:29.444Z,21.64
2018-07-31T00:05:33.753Z,21.64
2018-07-31T00:05:37.958Z,21.64
2018-07-31T00:05:42.226Z,21.64
2018-07-31T00:05:46.427Z,21.64
2018-07-31T00:05:50.533Z,21.65
2018-07-31T00:05:54.530Z,21.64
2018-07-31T00:05:58.628Z,21.65
2018-07-31T00:06:02.775Z,21.65
2018-07-31T00:06:06.975Z,21.65
2018-07-31T00:06:11.182Z,21.65
2018-07-31T00:06:15.279Z,21.65
2018-07-31T00:06:19.484Z,21.65
2018-07-31T00:06:23.577Z,21.65
2018-07-31T00:06:27.885Z,21.65
2018-07-31T00:06:32.195Z,21.65
2018-07-31T00:06:36.288Z,21.65
2018-07-31T00:06:40.498Z,21.65
2018-07-31T00:06:44.698Z,21.65
2018-07-31T00:06:49.015Z,21.65
2018-07-31T00:06:53.113Z,21.65
2018-07-31T00:06:57.215Z,21.66
2018-07-31T00:07:01.520Z,21.65
2018-07-31T00:07:05.510Z,21.66
2018-07-31T00:07:09.607Z,21.66
2018-07-31T00:07:13.919Z,21.66
2018-07-31T00:07:17.913Z,21.66
2018-07-31T00:07:22.222Z,21.66
2018-07-31T00:07:26.355Z,21.66
2018-07-31T00:07:30.346Z,21.66
2018-07-31T00:07:34.546Z,21.66
2018-07-31T00:07:38.857Z,21.66
2018-07-31T00:07:42.949Z,21.66
2018-07-31T00:07:47.147Z,21.67
2018-07-31T00:07:51.456Z,21.66
2018-07-31T00:07:55.547Z,21.66
2018-07-31T00:07:59.749Z,21.67
2018-07-31T00:08:04.113Z,21.66
2018-07-31T00:08:08.314Z,21.66
2018-07-31T00:08:12.515Z,21.67
2018-07-31T00:08:16.717Z,21.66
2018-07-31T00:08:20.917Z,21.66
2018-07-31T00:08:25.219Z,21.66
2018-07-31T00:08:29.472Z,21.67
2018-07-31T00:08:33.671Z,21.67
2018-07-31T00:08:37.976Z,21.66
2018-07-31T00:08:42.291Z,21.66
2018-07-31T00:08:46.492Z,21.67
2018-07-31T00:08:50.807Z,21.66
2018-07-31T00:08:55.122Z,21.67
2018-07-31T00:08:59.437Z,21.67
2018-07-31T00:09:03.583Z,21.67
2018-07-31T00:09:07.784Z,21.66
2018-07-31T00:09:11.788Z,21.67
2018-07-31T00:09:16.098Z,21.67
2018-07-31T00:09:20.297Z,21.67
2018-07-31T00:09:24.609Z,21.67
2018-07-31T00:09:28.857Z,21.68
2018-07-31T00:09:33.173Z,21.67
2018-07-31T00:09:37.162Z,21.67
2018-07-31T00:09:41.374Z,21.67
2018-07-31T00:09:45.683Z,21.68
2018-07-31T00:09:49.882Z,21.68
2018-07-31T00:09:54.198Z,21.68
2018-07-31T00:09:58.401Z,21.68
2018-07-31T00:10:02.714Z,21.68
2018-07-31T00:10:06.808Z,21.68
2018-07-31T00:10:10.907Z,21.67
2018-07-31T00:10:15.272Z,21.68
2018-07-31T00:10:19.369Z,21.68
2018-07-31T00:10:23.748Z,21.68
2018-07-31T00:10:27.968Z,21.68
2018-07-31T00:10:32.314Z,21.68
2018-07-31T00:10:36.822Z,21.68
2018-07-31T00:10:41.796Z,21.68
2018-07-31T00:10:46.000Z,21.69
2018-07-31T00:10:50.097Z,21.68
2018-07-31T00:10:54.300Z,21.69
2018-07-31T00:10:58.618Z,21.69
2018-07-31T00:11:02.827Z,21.69
2018-07-31T00:11:06.868Z,21.68
2018-07-31T00:11:11.181Z,21.69
2018-07-31T00:11:15.492Z,21.69
2018-07-31T00:11:19.718Z,21.69
2018-07-31T00:11:24.024Z,21.69
2018-07-31T00:11:28.343Z,21.7
2018-07-31T00:11:32.442Z,21.69
2018-07-31T00:11:36.754Z,21.69
2018-07-31T00:11:40.957Z,21.7
2018-07-31T00:11:45.107Z,21.7
2018-07-31T00:11:49.312Z,21.69
2018-07-31T00:11:53.306Z,21.7
2018-07-31T00:11:57.509Z,21.7
2018-07-31T00:12:01.821Z,21.7
2018-07-31T00:12:06.158Z,21.7
2018-07-31T00:12:10.152Z,21.7
2018-07-31T00:12:14.366Z,21.7
2018-07-31T00:12:18.573Z,21.7
2018-07-31T00:12:22.672Z,21.7
2018-07-31T00:12:26.770Z,21.7
2018-07-31T00:12:31.082Z,21.7
2018-07-31T00:12:35.390Z,21.69
2018-07-31T00:12:39.595Z,21.7
2018-07-31T00:12:43.692Z,21.7
2018-07-31T00:12:47.897Z,21.7
2018-07-31T00:12:52.223Z,21.69
2018-07-31T00:12:56.423Z,21.7
2018-07-31T00:13:00.544Z,21.7
2018-07-31T00:13:04.764Z,21.7
2018-07-31T00:13:08.857Z,21.69
2018-07-31T00:13:13.065Z,21.69
2018-07-31T00:13:17.264Z,21.7
2018-07-31T00:13:21.253Z,21.69
2018-07-31T00:13:25.364Z,21.69
2018-07-31T00:13:29.680Z,21.69
2018-07-31T00:13:33.669Z,21.7
2018-07-31T00:13:37.873Z,21.69
2018-07-31T00:13:42.183Z,21.68
2018-07-31T00:13:46.386Z,21.69
2018-07-31T00:13:50.710Z,21.69
2018-07-31T00:13:55.025Z,21.68
2018-07-31T00:13:59.247Z,21.69
2018-07-31T00:14:03.457Z,21.69
2018-07-31T00:14:07.773Z,21.68
2018-07-31T00:14:12.084Z,21.68
2018-07-31T00:14:16.296Z,21.68
2018-07-31T00:14:20.287Z,21.68
2018-07-31T00:14:24.392Z,21.69
2018-07-31T00:14:28.707Z,21.68
2018-07-31T00:14:33.015Z,21.68
2018-07-31T00:14:37.107Z,21.68
2018-07-31T00:14:41.414Z,21.68
2018-07-31T00:14:45.731Z,21.68
2018-07-31T00:14:49.936Z,21.67
2018-07-31T00:14:54.182Z,21.67
2018-07-31T00:14:58.496Z,21.68
2018-07-31T00:15:02.812Z,21.67
2018-07-31T00:15:06.922Z,21.68
2018-07-31T00:15:11.023Z,21.67
2018-07-31T00:15:15.349Z,21.67
2018-07-31T00:15:19.653Z,21.67
2018-07-31T00:15:23.748Z,21.68
2018-07-31T00:15:27.950Z,21.67
2018-07-31T00:15:32.046Z,21.67
2018-07-31T00:15:36.369Z,21.67
2018-07-31T00:15:40.574Z,21.67
2018-07-31T00:15:44.773Z,21.67
2018-07-31T00:15:48.874Z,21.67
2018-07-31T00:15:53.081Z,21.67
2018-07-31T00:15:57.394Z,21.67
2018-07-31T00:16:01.491Z,21.67
2018-07-31T00:16:05.695Z,21.68
2018-07-31T00:16:09.907Z,21.67
2018-07-31T00:16:14.137Z,21.66
2018-07-31T00:16:18.338Z,21.66
2018-07-31T00:16:22.642Z,21.66
2018-07-31T00:16:26.958Z,21.67
2018-07-31T00:16:31.160Z,21.67
2018-07-31T00:16:35.374Z,21.66
2018-07-31T00:16:39.485Z,21.67
2018-07-31T00:16:43.583Z,21.66
2018-07-31T00:16:47.781Z,21.66
2018-07-31T00:16:51.890Z,21.67
2018-07-31T00:16:56.196Z,21.66
2018-07-31T00:17:00.392Z,21.66
2018-07-31T00:17:04.377Z,21.66
2018-07-31T00:17:08.374Z,21.66
2018-07-31T00:17:12.693Z,21.65
2018-07-31T00:17:16.793Z,21.66
2018-07-31T00:17:20.993Z,21.66
2018-07-31T00:17:25.095Z,21.66
2018-07-31T00:17:29.409Z,21.67
2018-07-31T00:17:33.613Z,21.66
2018-07-31T00:17:37.812Z,21.66
2018-07-31T00:17:42.015Z,21.65
2018-07-31T00:17:46.324Z,21.66
2018-07-31T00:17:50.529Z,21.66
2018-07-31T00:17:54.836Z,21.67
2018-07-31T00:17:59.048Z,21.66
2018-07-31T00:18:03.256Z,21.66
2018-07-31T00:18:07.578Z,21.66
2018-07-31T00:18:11.672Z,21.66
2018-07-31T00:18:15.871Z,21.66
2018-07-31T00:18:20.074Z,21.66
2018-07-31T00:18:24.273Z,21.66
2018-07-31T00:18:28.584Z,21.67
2018-07-31T00:18:32.686Z,21.66
2018-07-31T00:18:36.886Z,21.67
2018-07-31T00:18:41.091Z,21.67
2018-07-31T00:19:17.397Z,21.67
2018-07-31T00:19:21.596Z,21.67
2018-07-31T00:19:25.798Z,21.66
2018-07-31T00:19:30.106Z,21.66
2018-07-31T00:19:34.093Z,21.67
2018-07-31T00:19:38.186Z,21.67
2018-07-31T00:19:42.440Z,21.66
2018-07-31T00:19:46.649Z,21.67
2018-07-31T00:19:50.961Z,21.67
2018-07-31T00:19:55.162Z,21.67
2018-07-31T00:19:59.367Z,21.67
2018-07-31T00:20:03.514Z,21.67
2018-07-31T00:20:07.611Z,21.67
2018-07-31T00:20:11.917Z,21.67
2018-07-31T00:20:16.013Z,21.67
2018-07-31T00:20:20.338Z,21.66
2018-07-31T00:20:24.432Z,21.67
2018-07-31T00:20:28.629Z,21.67
2018-07-31T00:20:32.948Z,21.67
2018-07-31T00:20:37.262Z,21.67
2018-07-31T00:20:41.474Z,21.66
2018-07-31T00:20:45.575Z,21.66
2018-07-31T00:20:49.576Z,21.67
2018-07-31T00:20:53.881Z,21.66
2018-07-31T00:20:58.240Z,21.67
2018-07-31T00:21:02.338Z,21.67
2018-07-31T00:21:06.542Z,21.67
2018-07-31T00:21:10.744Z,21.66
2018-07-31T00:21:14.840Z,21.67
2018-07-31T00:21:19.042Z,21.66
2018-07-31T00:21:23.271Z,21.66
2018-07-31T00:21:27.575Z,21.66
2018-07-31T00:21:31.892Z,21.66
2018-07-31T00:21:35.989Z,21.66
2018-07-31T00:21:40.308Z,21.66
2018-07-31T00:21:44.510Z,21.66
2018-07-31T00:21:48.712Z,21.66
2018-07-31T00:21:52.813Z,21.66
2018-07-31T00:21:57.006Z,21.66
2018-07-31T00:22:01.318Z,21.66
2018-07-31T00:22:05.411Z,21.66
2018-07-31T00:22:09.503Z,21.66
2018-07-31T00:22:13.719Z,21.66
2018-07-31T00:22:17.975Z,21.66
2018-07-31T00:22:22.180Z,21.66
2018-07-31T00:22:26.376Z,21.66
2018-07-31T00:22:30.577Z,21.65
2018-07-31T00:22:34.779Z,21.66
2018-07-31T00:22:39.092Z,21.65
2018-07-31T00:22:43.397Z,21.66
2018-07-31T00:22:47.712Z,21.65
2018-07-31T00:22:52.021Z,21.66
2018-07-31T00:22:56.331Z,21.66
2018-07-31T00:23:00.534Z,21.66
2018-07-31T00:23:04.738Z,21.66
2018-07-31T00:23:09.051Z,21.66
2018-07-31T00:23:13.360Z,21.66
2018-07-31T00:23:17.561Z,21.66
2018-07-31T00:23:21.778Z,21.67
2018-07-31T00:23:26.091Z,21.67
2018-07-31T00:23:30.289Z,21.67
2018-07-31T00:23:34.498Z,21.66
2018-07-31T00:23:38.813Z,21.67
2018-07-31T00:23:43.017Z,21.66
2018-07-31T00:23:47.327Z,21.67
2018-07-31T00:23:51.639Z,21.67
2018-07-31T00:23:55.836Z,21.67
2018-07-31T00:24:00.145Z,21.68
2018-07-31T00:24:04.236Z,21.66
2018-07-31T00:24:08.548Z,21.68
2018-07-31T00:24:12.755Z,21.67
2018-07-31T00:24:16.959Z,21.68
2018-07-31T00:24:21.058Z,21.67
2018-07-31T00:24:25.261Z,21.68
2018-07-31T00:24:29.246Z,21.68
2018-07-31T00:24:33.446Z,21.68
2018-07-31T00:24:37.758Z,21.68
2018-07-31T00:24:42.060Z,21.68
2018-07-31T00:24:46.364Z,21.68
2018-07-31T00:24:50.669Z,21.69
2018-07-31T00:24:54.969Z,21.69
2018-07-31T00:24:59.282Z,21.69
2018-07-31T00:25:03.384Z,21.68
2018-07-31T00:25:07.595Z,21.68
2018-07-31T00:25:11.898Z,21.69
2018-07-31T00:25:15.891Z,21.69
2018-07-31T00:25:20.140Z,21.69
2018-07-31T00:25:24.444Z,21.69
2018-07-31T00:25:28.642Z,21.69
2018-07-31T00:25:32.970Z,21.7
2018-07-31T00:25:37.279Z,21.7
2018-07-31T00:25:41.387Z,21.69
2018-07-31T00:25:45.592Z,21.69
2018-07-31T00:25:49.900Z,21.69
2018-07-31T00:25:54.098Z,21.69
2018-07-31T00:25:58.291Z,21.7
2018-07-31T00:26:02.601Z,21.69
2018-07-31T00:26:06.698Z,21.7
2018-07-31T00:26:11.012Z,21.69
2018-07-31T00:26:15.319Z,21.69
2018-07-31T00:26:19.520Z,21.7
2018-07-31T00:26:23.623Z,21.69
2018-07-31T00:26:27.838Z,21.7
2018-07-31T00:26:32.160Z,21.69
2018-07-31T00:26:36.359Z,21.69
2018-07-31T00:26:40.361Z,21.69
2018-07-31T00:26:44.348Z,21.7
2018-07-31T00:26:48.651Z,21.7
2018-07-31T00:26:52.864Z,21.69
2018-07-31T00:26:57.070Z,21.7
2018-07-31T00:27:01.163Z,21.71
2018-07-31T00:27:05.423Z,21.69
2018-07-31T00:27:09.513Z,21.69
2018-07-31T00:27:13.822Z,21.7
2018-07-31T00:27:18.133Z,21.7
2018-07-31T00:27:22.334Z,21.69
2018-07-31T00:27:26.651Z,21.7
2018-07-31T00:27:30.857Z,21.69
2018-07-31T00:27:34.949Z,21.69
2018-07-31T00:27:39.147Z,21.69
2018-07-31T00:27:43.237Z,21.7
2018-07-31T00:27:47.434Z,21.69
2018-07-31T00:27:51.746Z,21.69
2018-07-31T00:27:55.950Z,21.69
2018-07-31T00:28:00.154Z,21.69
2018-07-31T00:28:04.353Z,21.68
2018-07-31T00:28:08.664Z,21.69
2018-07-31T00:28:12.871Z,21.68
2018-07-31T00:28:17.180Z,21.69
2018-07-31T00:28:21.499Z,21.69
2018-07-31T00:28:25.589Z,21.68
2018-07-31T00:28:29.574Z,21.69
2018-07-31T00:28:33.776Z,21.68
2018-07-31T00:28:37.867Z,21.68
2018-07-31T00:28:42.186Z,21.68
2018-07-31T00:28:46.388Z,21.68
2018-07-31T00:28:50.591Z,21.68
2018-07-31T00:28:54.685Z,21.67
2018-07-31T00:28:58.890Z,21.68
2018-07-31T00:29:02.987Z,21.67
2018-07-31T00:29:07.295Z,21.67
2018-07-31T00:29:11.296Z,21.67
2018-07-31T00:29:15.502Z,21.67
2018-07-31T00:29:19.704Z,21.67
2018-07-31T00:29:23.904Z,21.68
2018-07-31T00:29:27.790Z,21.67
2018-07-31T00:29:32.001Z,21.67
2018-07-31T00:29:36.206Z,21.66
2018-07-31T00:29:40.507Z,21.66
2018-07-31T00:29:44.717Z,21.66
2018-07-31T00:29:48.709Z,21.66
2018-07-31T00:29:52.911Z,21.66
2018-07-31T00:29:57.004Z,21.66
2018-07-31T00:30:01.208Z,21.66
2018-07-31T00:30:05.420Z,21.66
2018-07-31T00:30:09.522Z,21.66
2018-07-31T00:30:13.724Z,21.66
2018-07-31T00:30:18.031Z,21.66
2018-07-31T00:30:22.130Z,21.65
2018-07-31T00:30:26.443Z,21.65
2018-07-31T00:30:30.654Z,21.65
2018-07-31T00:30:34.858Z,21.64
2018-07-31T00:30:38.953Z,21.65
2018-07-31T00:30:42.948Z,21.64
2018-07-31T00:30:47.154Z,21.65
2018-07-31T00:30:51.472Z,21.65
2018-07-31T00:30:55.563Z,21.65
2018-07-31T00:30:59.768Z,21.64
2018-07-31T00:31:03.753Z,21.65
2018-07-31T00:31:07.961Z,21.64
2018-07-31T00:31:12.161Z,21.65
2018-07-31T00:31:16.360Z,21.64
2018-07-31T00:31:20.454Z,21.64
2018-07-31T00:31:24.650Z,21.65
2018-07-31T00:31:28.750Z,21.64
2018-07-31T00:31:32.846Z,21.63
2018-07-31T00:31:37.054Z,21.64
2018-07-31T00:31:41.042Z,21.63
2018-07-31T00:31:45.353Z,21.63
2018-07-31T00:31:49.549Z,21.63
2018-07-31T00:31:53.641Z,21.63
2018-07-31T00:31:57.853Z,21.63
2018-07-31T00:32:02.057Z,21.62
2018-07-31T00:32:06.044Z,21.61
2018-07-31T00:32:10.349Z,21.62
2018-07-31T00:32:14.552Z,21.61
2018-07-31T00:32:18.872Z,21.62
2018-07-31T00:32:23.185Z,21.61
2018-07-31T00:32:27.390Z,21.61
2018-07-31T00:32:31.589Z,21.61
2018-07-31T00:32:35.689Z,21.61
2018-07-31T00:32:40.003Z,21.6
2018-07-31T00:32:44.307Z,21.61
2018-07-31T00:32:48.510Z,21.59
2018-07-31T00:32:52.716Z,21.59
2018-07-31T00:32:57.018Z,21.6
2018-07-31T00:33:01.220Z,21.59
2018-07-31T00:33:05.425Z,21.58
2018-07-31T00:33:09.732Z,21.59
2018-07-31T00:33:13.725Z,21.6
2018-07-31T00:33:17.824Z,21.58
2018-07-31T00:33:21.958Z,21.58
2018-07-31T00:33:26.059Z,21.58
2018-07-31T00:33:30.264Z,21.58
2018-07-31T00:33:34.570Z,21.59
2018-07-31T00:33:38.559Z,21.58
2018-07-31T00:33:42.549Z,21.58
2018-07-31T00:33:46.859Z,21.58
2018-07-31T00:33:51.065Z,21.58
2018-07-31T00:33:55.265Z,21.57
2018-07-31T00:33:59.570Z,21.57
2018-07-31T00:34:03.769Z,21.57
2018-07-31T00:34:07.867Z,21.57
2018-07-31T00:34:12.182Z,21.58
2018-07-31T00:34:16.379Z,21.57
2018-07-31T00:34:20.478Z,21.57
2018-07-31T00:34:24.683Z,21.56
2018-07-31T00:34:28.889Z,21.57
2018-07-31T00:34:33.199Z,21.56
2018-07-31T00:34:37.403Z,21.56
2018-07-31T00:34:41.604Z,21.56
2018-07-31T00:34:45.810Z,21.55
2018-07-31T00:34:50.029Z,21.56
2018-07-31T00:34:54.336Z,21.56
2018-07-31T00:34:58.319Z,21.55
2018-07-31T00:35:02.311Z,21.56
2018-07-31T00:35:06.299Z,21.56
2018-07-31T00:35:10.400Z,21.56
2018-07-31T00:35:14.603Z,21.55
2018-07-31T00:35:18.803Z,21.55
2018-07-31T00:35:23.111Z,21.55
2018-07-31T00:35:27.319Z,21.55
2018-07-31T00:35:31.630Z,21.55
2018-07-31T00:35:35.940Z,21.55
2018-07-31T00:35:40.135Z,21.55
2018-07-31T00:35:44.342Z,21.54
2018-07-31T00:35:48.656Z,21.55
2018-07-31T00:35:52.972Z,21.55
2018-07-31T00:35:57.283Z,21.54
2018-07-31T00:36:01.649Z,21.54
2018-07-31T00:36:05.748Z,21.54
2018-07-31T00:36:09.733Z,21.54
2018-07-31T00:36:13.937Z,21.54
2018-07-31T00:36:18.029Z,21.55
2018-07-31T00:36:22.231Z,21.54
2018-07-31T00:36:26.446Z,21.54
2018-07-31T00:36:30.763Z,21.54
2018-07-31T00:36:35.074Z,21.54
2018-07-31T00:36:39.384Z,21.54
2018-07-31T00:36:43.271Z,21.54
2018-07-31T00:36:47.577Z,21.54
2018-07-31T00:36:51.669Z,21.54
2018-07-31T00:36:55.664Z,21.53
2018-07-31T00:36:59.971Z,21.53
2018-07-31T00:37:04.117Z,21.54
2018-07-31T00:37:08.209Z,21.53
2018-07-31T00:37:12.517Z,21.53
2018-07-31T00:37:16.717Z,21.53
2018-07-31T00:37:20.913Z,21.53
2018-07-31T00:37:25.111Z,21.52
2018-07-31T00:37:29.319Z,21.52
2018-07-31T00:37:33.637Z,21.53
2018-07-31T00:37:37.838Z,21.53
2018-07-31T00:37:42.146Z,21.52
2018-07-31T00:37:46.349Z,21.52
2018-07-31T00:37:50.552Z,21.52
2018-07-31T00:37:54.769Z,21.53
2018-07-31T00:37:58.865Z,21.52
2018-07-31T00:38:03.010Z,21.53
2018-07-31T00:38:07.325Z,21.53
2018-07-31T00:38:11.421Z,21.52
2018-07-31T00:38:15.729Z,21.53
2018-07-31T00:38:19.931Z,21.52
2018-07-31T00:38:24.236Z,21.53
2018-07-31T00:38:28.442Z,21.52
2018-07-31T00:38:32.643Z,21.51
2018-07-31T00:38:36.948Z,21.52
2018-07-31T00:38:41.272Z,21.52
2018-07-31T00:38:45.473Z,21.51
2018-07-31T00:38:49.785Z,21.52
2018-07-31T00:38:53.879Z,21.52
2018-07-31T00:38:58.082Z,21.51
2018-07-31T00:39:02.396Z,21.51
2018-07-31T00:39:06.500Z,21.52
2018-07-31T00:39:10.802Z,21.5
2018-07-31T00:39:15.004Z,21.51
2018-07-31T00:39:19.096Z,21.51
2018-07-31T00:39:23.402Z,21.5
2018-07-31T00:39:27.635Z,21.51
2018-07-31T00:39:31.838Z,21.51
2018-07-31T00:39:36.042Z,21.51
2018-07-31T00:39:40.344Z,21.51
2018-07-31T00:39:44.548Z,21.5
2018-07-31T00:39:48.745Z,21.5
2018-07-31T00:39:52.965Z,21.5
2018-07-31T00:39:56.953Z,21.5
2018-07-31T00:40:01.263Z,21.5
2018-07-31T00:40:05.361Z,21.51
2018-07-31T00:40:09.557Z,21.5
2018-07-31T00:40:13.856Z,21.5
2018-07-31T00:40:17.947Z,21.5
2018-07-31T00:40:22.194Z,21.49
2018-07-31T00:40:26.508Z,21.5
2018-07-31T00:40:30.814Z,21.5
2018-07-31T00:40:35.129Z,21.49
2018-07-31T00:40:39.328Z,21.49
2018-07-31T00:40:43.422Z,21.49
2018-07-31T00:40:47.725Z,21.49
2018-07-31T00:40:51.930Z,21.48
2018-07-31T00:40:56.233Z,21.48
2018-07-31T00:41:00.430Z,21.5
2018-07-31T00:41:04.679Z,21.49
2018-07-31T00:41:08.772Z,21.49
2018-07-31T00:41:13.082Z,21.48
2018-07-31T00:41:17.177Z,21.49
2018-07-31T00:41:21.280Z,21.48
2018-07-31T00:41:25.489Z,21.48
2018-07-31T00:41:29.691Z,21.48
2018-07-31T00:41:33.679Z,21.48
2018-07-31T00:41:37.884Z,21.49
2018-07-31T00:41:42.090Z,21.48
2018-07-31T00:41:46.291Z,21.48
2018-07-31T00:41:50.386Z,21.48
2018-07-31T00:41:54.586Z,21.47
2018-07-31T00:41:58.898Z,21.47
2018-07-31T00:42:02.997Z,21.47
2018-07-31T00:42:07.211Z,21.47
2018-07-31T00:42:11.303Z,21.47
2018-07-31T00:42:15.505Z,21.46
2018-07-31T00:42:19.595Z,21.46
2018-07-31T00:42:23.789Z,21.46
2018-07-31T00:42:27.883Z,21.47
2018-07-31T00:42:31.987Z,21.47
2018-07-31T00:42:36.304Z,21.46
2018-07-31T00:42:40.519Z,21.46
2018-07-31T00:42:44.826Z,21.46
2018-07-31T00:42:49.131Z,21.45
2018-07-31T00:42:53.448Z,21.45
2018-07-31T00:42:57.656Z,21.45
2018-07-31T00:43:01.974Z,21.45
2018-07-31T00:43:06.281Z,21.44
2018-07-31T00:43:10.486Z,21.45
2018-07-31T00:43:14.689Z,21.44
2018-07-31T00:43:18.896Z,21.45
2018-07-31T00:43:23.100Z,21.44
2018-07-31T00:43:27.306Z,21.43
2018-07-31T00:43:31.363Z,21.43
2018-07-31T00:43:35.675Z,21.43
2018-07-31T00:43:39.879Z,21.43
2018-07-31T00:43:43.976Z,21.43
2018-07-31T00:43:48.178Z,21.42
2018-07-31T00:43:52.270Z,21.42
2018-07-31T00:43:56.633Z,21.41
2018-07-31T00:44:00.949Z,21.42
2018-07-31T00:44:05.052Z,21.41
2018-07-31T00:44:09.359Z,21.41
2018-07-31T00:44:13.561Z,21.4
2018-07-31T00:44:17.657Z,21.4
2018-07-31T00:44:21.958Z,21.4
2018-07-31T00:44:26.202Z,21.4
2018-07-31T00:44:30.194Z,21.39
2018-07-31T00:44:34.292Z,21.38
2018-07-31T00:44:38.496Z,21.38
2018-07-31T00:44:42.804Z,21.4
2018-07-31T00:44:47.013Z,21.38
2018-07-31T00:44:51.328Z,21.38
2018-07-31T00:44:55.425Z,21.37
2018-07-31T00:44:59.728Z,21.37
2018-07-31T00:45:03.722Z,21.37
2018-07-31T00:45:07.709Z,21.36
2018-07-31T00:45:12.016Z,21.36
2018-07-31T00:45:16.215Z,21.36
2018-07-31T00:45:20.415Z,21.35
2018-07-31T00:45:24.620Z,21.34
2018-07-31T00:45:28.926Z,21.35
2018-07-31T00:45:33.021Z,21.35
2018-07-31T00:45:37.218Z,21.34
2018-07-31T00:45:41.423Z,21.34
2018-07-31T00:45:45.414Z,21.34
2018-07-31T00:45:49.769Z,21.33
2018-07-31T00:45:54.079Z,21.33
2018-07-31T00:45:58.279Z,21.33
2018-07-31T00:46:02.483Z,21.33
2018-07-31T00:46:06.365Z,21.32
2018-07-31T00:46:10.463Z,21.31
2018-07-31T00:46:14.771Z,21.31
2018-07-31T00:46:18.968Z,21.31
2018-07-31T00:46:22.957Z,21.31
2018-07-31T00:46:26.954Z,21.31
2018-07-31T00:46:31.051Z,21.31
2018-07-31T00:46:35.251Z,21.31
2018-07-31T00:46:39.561Z,21.31
2018-07-31T00:46:43.869Z,21.3
2018-07-31T00:46:48.177Z,21.3
2018-07-31T00:46:52.276Z,21.3
2018-07-31T00:46:56.160Z,21.29
2018-07-31T00:47:00.359Z,21.3
2018-07-31T00:47:04.676Z,21.3
2018-07-31T00:47:08.767Z,21.29
2018-07-31T00:47:13.072Z,21.29
2018-07-31T00:47:17.271Z,21.29
2018-07-31T00:47:21.475Z,21.29
2018-07-31T00:47:25.570Z,21.28
2018-07-31T00:47:29.665Z,21.28
2018-07-31T00:47:33.862Z,21.29
2018-07-31T00:47:38.061Z,21.28
2018-07-31T00:47:41.943Z,21.28
2018-07-31T00:47:46.143Z,21.28
2018-07-31T00:47:50.454Z,21.27
2018-07-31T00:47:54.655Z,21.28
2018-07-31T00:47:58.752Z,21.27
2018-07-31T00:48:03.008Z,21.27
2018-07-31T00:48:07.002Z,21.27
2018-07-31T00:48:11.316Z,21.28
2018-07-31T00:48:15.632Z,21.26
2018-07-31T00:48:19.837Z,21.26
2018-07-31T00:48:24.039Z,21.26
2018-07-31T00:48:28.365Z,21.26
2018-07-31T00:48:32.677Z,21.26
2018-07-31T00:48:36.877Z,21.25
2018-07-31T00:48:40.863Z,21.26
2018-07-31T00:48:45.068Z,21.25
2018-07-31T00:48:49.160Z,21.25
2018-07-31T00:48:53.466Z,21.26
2018-07-31T00:48:57.664Z,21.24
2018-07-31T00:49:01.865Z,21.25
2018-07-31T00:49:05.960Z,21.25
2018-07-31T00:49:09.951Z,21.24
2018-07-31T00:49:14.057Z,21.24
2018-07-31T00:49:18.369Z,21.25
2018-07-31T00:49:22.358Z,21.24
2018-07-31T00:49:26.565Z,21.25
2018-07-31T00:49:30.772Z,21.24
2018-07-31T00:49:34.867Z,21.24
2018-07-31T00:49:38.957Z,21.24
2018-07-31T00:49:43.157Z,21.23
2018-07-31T00:49:47.260Z,21.23
2018-07-31T00:49:51.462Z,21.22
2018-07-31T00:49:55.667Z,21.22
2018-07-31T00:49:59.978Z,21.22
2018-07-31T00:50:04.200Z,21.23
2018-07-31T00:50:08.303Z,21.23
2018-07-31T00:50:12.507Z,21.23
2018-07-31T00:50:16.704Z,21.23
2018-07-31T00:50:20.801Z,21.22
2018-07-31T00:50:24.893Z,21.22
2018-07-31T00:50:29.204Z,21.22
2018-07-31T00:50:33.405Z,21.22
2018-07-31T00:50:37.639Z,21.22
2018-07-31T00:50:41.837Z,21.22
2018-07-31T00:50:46.144Z,21.22
2018-07-31T00:50:50.489Z,21.21
2018-07-31T00:50:54.593Z,21.21
2018-07-31T00:50:58.905Z,21.21
2018-07-31T00:51:03.004Z,21.21
2018-07-31T00:51:07.209Z,21.21
2018-07-31T00:51:11.514Z,21.21
2018-07-31T00:51:15.821Z,21.21
2018-07-31T00:51:19.917Z,21.2
2018-07-31T00:51:24.222Z,21.21
2018-07-31T00:51:28.317Z,21.2
2018-07-31T00:51:32.632Z,21.19
2018-07-31T00:51:36.940Z,21.2
2018-07-31T00:51:41.149Z,21.2
2018-07-31T00:51:45.451Z,21.19
2018-07-31T00:51:49.443Z,21.19
2018-07-31T00:51:53.649Z,21.19
2018-07-31T00:51:57.960Z,21.19
2018-07-31T00:52:02.064Z,21.19
2018-07-31T00:52:06.157Z,21.19
2018-07-31T00:52:10.251Z,21.18
2018-07-31T00:52:14.347Z,21.18
2018-07-31T00:52:18.548Z,21.18
2018-07-31T00:52:22.754Z,21.18
2018-07-31T00:52:26.642Z,21.18
2018-07-31T00:52:30.857Z,21.18
2018-07-31T00:52:35.163Z,21.17
2018-07-31T00:52:39.468Z,21.17
2018-07-31T00:52:43.674Z,21.18
2018-07-31T00:52:47.880Z,21.18
2018-07-31T00:52:52.077Z,21.17
2018-07-31T00:52:56.282Z,21.17
2018-07-31T00:53:00.590Z,21.17
2018-07-31T00:53:04.472Z,21.16
2018-07-31T00:53:08.673Z,21.16
2018-07-31T00:53:12.877Z,21.16
2018-07-31T00:53:17.191Z,21.16
2018-07-31T00:53:21.502Z,21.16
2018-07-31T00:53:25.708Z,21.15
2018-07-31T00:53:30.016Z,21.15
2018-07-31T00:53:34.219Z,21.15
2018-07-31T00:53:38.417Z,21.15
2018-07-31T00:53:42.504Z,21.15
2018-07-31T00:53:46.596Z,21.15
2018-07-31T00:53:50.800Z,21.15
2018-07-31T00:53:55.103Z,21.15
2018-07-31T00:53:59.303Z,21.14
2018-07-31T00:54:03.450Z,21.14
2018-07-31T00:54:07.760Z,21.14
2018-07-31T00:54:11.857Z,21.14
2018-07-31T00:54:16.060Z,21.13
2018-07-31T00:54:20.254Z,21.14
2018-07-31T00:54:24.457Z,21.13
2018-07-31T00:54:28.336Z,21.13
2018-07-31T00:54:32.536Z,21.13
2018-07-31T00:54:36.850Z,21.13
2018-07-31T00:54:41.047Z,21.13
2018-07-31T00:54:45.253Z,21.13